sensor_id;sensor_type;location;lat;lon;timestamp;P1;durP1;ratioP1;P2;durP2;ratioP2
58528;SDS011;44322;52.968;5.816;2023-12-29T00:01:45;10.73;;;3.58;;
58528;SDS011;44322;52.968;5.816;2023-12-29T00:04:11;16.13;;;4.22;;
58528;SDS011;44322;52.968;5.816;2023-12-29T00:06:40;16.02;;;4.60;;
58528;SDS011;44322;52.968;5.816;2023-12-29T00:09:06;16.88;;;4.55;;
58528;SDS011;44322;52.968;5.816;2023-12-29T00:11:32;14.48;;;4.07;;
58528;SDS011;44322;52.968;5.816;2023-12-29T00:13:58;13.73;;;3.75;;
58528;SDS011;44322;52.968;5.816;2023-12-29T00:16:24;16.58;;;4.13;;
58528;SDS011;44322;52.968;5.816;2023-12-29T00:18:49;16.25;;;3.60;;
58528;SDS011;44322;52.968;5.816;2023-12-29T00:21:15;17.58;;;3.88;;
58528;SDS011;44322;52.968;5.816;2023-12-29T00:23:41;11.82;;;3.70;;
58528;SDS011;44322;52.968;5.816;2023-12-29T00:26:07;11.98;;;3.80;;
58528;SDS011;44322;52.968;5.816;2023-12-29T00:28:34;13.18;;;3.63;;
58528;SDS011;44322;52.968;5.816;2023-12-29T00:31:02;13.75;;;3.35;;
58528;SDS011;44322;52.968;5.816;2023-12-29T00:33:27;10.68;;;3.53;;
58528;SDS011;44322;52.968;5.816;2023-12-29T00:35:53;9.60;;;3.20;;
58528;SDS011;44322;52.968;5.816;2023-12-29T00:38:18;12.23;;;3.67;;
58528;SDS011;44322;52.968;5.816;2023-12-29T00:40:44;12.00;;;3.42;;
58528;SDS011;44322;52.968;5.816;2023-12-29T00:43:10;13.13;;;4.03;;
58528;SDS011;44322;52.968;5.816;2023-12-29T00:45:36;17.45;;;4.20;;
58528;SDS011;44322;52.968;5.816;2023-12-29T00:48:02;12.23;;;4.38;;
58528;SDS011;44322;52.968;5.816;2023-12-29T00:50:29;14.77;;;4.80;;
58528;SDS011;44322;52.968;5.816;2023-12-29T00:52:55;18.33;;;4.78;;
58528;SDS011;44322;52.968;5.816;2023-12-29T00:55:20;22.20;;;5.00;;
58528;SDS011;44322;52.968;5.816;2023-12-29T00:57:46;16.50;;;4.47;;
58528;SDS011;44322;52.968;5.816;2023-12-29T01:00:12;15.95;;;4.57;;
58528;SDS011;44322;52.968;5.816;2023-12-29T01:02:38;19.13;;;5.00;;
58528;SDS011;44322;52.968;5.816;2023-12-29T01:05:05;19.20;;;5.25;;
58528;SDS011;44322;52.968;5.816;2023-12-29T01:07:31;16.88;;;4.70;;
58528;SDS011;44322;52.968;5.816;2023-12-29T01:09:56;21.98;;;5.40;;
58528;SDS011;44322;52.968;5.816;2023-12-29T01:12:22;20.00;;;5.18;;
58528;SDS011;44322;52.968;5.816;2023-12-29T01:14:47;26.00;;;5.15;;
58528;SDS011;44322;52.968;5.816;2023-12-29T01:17:13;22.95;;;6.18;;
58528;SDS011;44322;52.968;5.816;2023-12-29T01:19:39;26.38;;;6.10;;
58528;SDS011;44322;52.968;5.816;2023-12-29T01:22:04;27.40;;;6.20;;
58528;SDS011;44322;52.968;5.816;2023-12-29T01:24:30;28.05;;;6.25;;
58528;SDS011;44322;52.968;5.816;2023-12-29T01:26:56;34.75;;;6.90;;
58528;SDS011;44322;52.968;5.816;2023-12-29T01:29:21;26.95;;;6.57;;
58528;SDS011;44322;52.968;5.816;2023-12-29T01:31:47;26.02;;;5.60;;
58528;SDS011;44322;52.968;5.816;2023-12-29T01:34:13;27.50;;;5.85;;
58528;SDS011;44322;52.968;5.816;2023-12-29T01:36:38;26.48;;;6.75;;
58528;SDS011;44322;52.968;5.816;2023-12-29T01:39:04;21.85;;;5.50;;
58528;SDS011;44322;52.968;5.816;2023-12-29T01:41:30;19.20;;;4.38;;
58528;SDS011;44322;52.968;5.816;2023-12-29T01:46:25;10.55;;;2.95;;
58528;SDS011;44322;52.968;5.816;2023-12-29T01:48:51;16.17;;;3.08;;
58528;SDS011;44322;52.968;5.816;2023-12-29T01:51:17;14.80;;;3.63;;
58528;SDS011;44322;52.968;5.816;2023-12-29T01:53:43;12.40;;;2.65;;
58528;SDS011;44322;52.968;5.816;2023-12-29T01:56:09;14.02;;;3.00;;
58528;SDS011;44322;52.968;5.816;2023-12-29T01:58:35;14.02;;;3.03;;
58528;SDS011;44322;52.968;5.816;2023-12-29T02:01:01;15.43;;;3.28;;
58528;SDS011;44322;52.968;5.816;2023-12-29T02:03:27;16.08;;;3.50;;
58528;SDS011;44322;52.968;5.816;2023-12-29T02:05:56;13.95;;;3.10;;
58528;SDS011;44322;52.968;5.816;2023-12-29T02:08:22;16.05;;;3.60;;
58528;SDS011;44322;52.968;5.816;2023-12-29T02:10:48;17.17;;;3.55;;
58528;SDS011;44322;52.968;5.816;2023-12-29T02:13:14;25.33;;;5.35;;
58528;SDS011;44322;52.968;5.816;2023-12-29T02:15:39;35.38;;;5.97;;
58528;SDS011;44322;52.968;5.816;2023-12-29T02:18:06;30.65;;;6.95;;
58528;SDS011;44322;52.968;5.816;2023-12-29T02:20:32;30.13;;;5.68;;
58528;SDS011;44322;52.968;5.816;2023-12-29T02:22:57;33.40;;;6.43;;
58528;SDS011;44322;52.968;5.816;2023-12-29T02:25:23;30.33;;;5.80;;
58528;SDS011;44322;52.968;5.816;2023-12-29T02:27:57;29.75;;;6.90;;
58528;SDS011;44322;52.968;5.816;2023-12-29T02:32:59;33.92;;;6.07;;
58528;SDS011;44322;52.968;5.816;2023-12-29T02:35:28;33.85;;;7.18;;
58528;SDS011;44322;52.968;5.816;2023-12-29T02:37:57;28.33;;;6.10;;
58528;SDS011;44322;52.968;5.816;2023-12-29T02:40:23;33.97;;;6.85;;
58528;SDS011;44322;52.968;5.816;2023-12-29T02:42:50;30.42;;;5.72;;
58528;SDS011;44322;52.968;5.816;2023-12-29T02:45:16;27.45;;;5.65;;
58528;SDS011;44322;52.968;5.816;2023-12-29T02:47:42;28.67;;;5.93;;
58528;SDS011;44322;52.968;5.816;2023-12-29T02:50:08;24.95;;;5.30;;
58528;SDS011;44322;52.968;5.816;2023-12-29T02:52:34;27.58;;;5.95;;
58528;SDS011;44322;52.968;5.816;2023-12-29T02:55:00;27.05;;;5.85;;
58528;SDS011;44322;52.968;5.816;2023-12-29T02:57:25;26.33;;;5.30;;
58528;SDS011;44322;52.968;5.816;2023-12-29T02:59:51;27.08;;;5.10;;
58528;SDS011;44322;52.968;5.816;2023-12-29T03:02:17;29.45;;;5.82;;
58528;SDS011;44322;52.968;5.816;2023-12-29T03:04:42;30.15;;;6.38;;
58528;SDS011;44322;52.968;5.816;2023-12-29T03:07:09;33.63;;;6.80;;
58528;SDS011;44322;52.968;5.816;2023-12-29T03:09:35;32.50;;;6.80;;
58528;SDS011;44322;52.968;5.816;2023-12-29T03:12:00;30.17;;;7.10;;
58528;SDS011;44322;52.968;5.816;2023-12-29T03:14:26;31.90;;;7.20;;
58528;SDS011;44322;52.968;5.816;2023-12-29T03:16:52;27.55;;;6.32;;
58528;SDS011;44322;52.968;5.816;2023-12-29T03:19:17;25.42;;;5.75;;
58528;SDS011;44322;52.968;5.816;2023-12-29T03:21:43;27.75;;;6.10;;
58528;SDS011;44322;52.968;5.816;2023-12-29T03:24:09;31.05;;;6.75;;
58528;SDS011;44322;52.968;5.816;2023-12-29T03:26:35;34.67;;;6.85;;
58528;SDS011;44322;52.968;5.816;2023-12-29T03:29:00;31.33;;;5.85;;
58528;SDS011;44322;52.968;5.816;2023-12-29T03:31:26;28.50;;;5.45;;
58528;SDS011;44322;52.968;5.816;2023-12-29T03:33:52;30.67;;;6.18;;
58528;SDS011;44322;52.968;5.816;2023-12-29T03:36:18;30.98;;;6.93;;
58528;SDS011;44322;52.968;5.816;2023-12-29T03:38:43;29.23;;;6.55;;
58528;SDS011;44322;52.968;5.816;2023-12-29T03:41:09;25.30;;;6.90;;
58528;SDS011;44322;52.968;5.816;2023-12-29T03:43:35;28.67;;;6.18;;
58528;SDS011;44322;52.968;5.816;2023-12-29T03:46:00;28.38;;;7.03;;
58528;SDS011;44322;52.968;5.816;2023-12-29T03:48:26;23.35;;;5.85;;
58528;SDS011;44322;52.968;5.816;2023-12-29T03:50:51;28.77;;;6.45;;
58528;SDS011;44322;52.968;5.816;2023-12-29T03:53:17;28.50;;;6.25;;
58528;SDS011;44322;52.968;5.816;2023-12-29T03:55:44;31.17;;;6.35;;
58528;SDS011;44322;52.968;5.816;2023-12-29T03:58:10;26.92;;;5.72;;
58528;SDS011;44322;52.968;5.816;2023-12-29T04:00:36;23.17;;;6.03;;
58528;SDS011;44322;52.968;5.816;2023-12-29T04:03:01;26.45;;;5.53;;
58528;SDS011;44322;52.968;5.816;2023-12-29T04:05:27;26.23;;;5.22;;
58528;SDS011;44322;52.968;5.816;2023-12-29T04:07:53;24.40;;;5.78;;
58528;SDS011;44322;52.968;5.816;2023-12-29T04:10:19;24.65;;;4.95;;
58528;SDS011;44322;52.968;5.816;2023-12-29T04:12:44;24.48;;;4.93;;
58528;SDS011;44322;52.968;5.816;2023-12-29T04:15:10;24.20;;;5.45;;
58528;SDS011;44322;52.968;5.816;2023-12-29T04:17:35;23.77;;;4.97;;
58528;SDS011;44322;52.968;5.816;2023-12-29T04:20:01;22.67;;;5.53;;
58528;SDS011;44322;52.968;5.816;2023-12-29T04:22:27;22.95;;;5.82;;
58528;SDS011;44322;52.968;5.816;2023-12-29T04:24:52;16.98;;;4.70;;
58528;SDS011;44322;52.968;5.816;2023-12-29T04:27:18;23.60;;;5.85;;
58528;SDS011;44322;52.968;5.816;2023-12-29T04:29:44;24.75;;;5.70;;
58528;SDS011;44322;52.968;5.816;2023-12-29T04:32:10;21.77;;;5.15;;
58528;SDS011;44322;52.968;5.816;2023-12-29T04:34:36;22.40;;;5.88;;
58528;SDS011;44322;52.968;5.816;2023-12-29T04:37:03;30.25;;;5.63;;
58528;SDS011;44322;52.968;5.816;2023-12-29T04:39:28;24.05;;;5.15;;
58528;SDS011;44322;52.968;5.816;2023-12-29T04:41:54;24.85;;;5.53;;
58528;SDS011;44322;52.968;5.816;2023-12-29T04:44:19;23.63;;;5.65;;
58528;SDS011;44322;52.968;5.816;2023-12-29T04:46:45;22.92;;;5.40;;
58528;SDS011;44322;52.968;5.816;2023-12-29T04:49:11;26.33;;;5.72;;
58528;SDS011;44322;52.968;5.816;2023-12-29T04:51:37;22.80;;;5.22;;
58528;SDS011;44322;52.968;5.816;2023-12-29T04:54:03;24.55;;;5.57;;
58528;SDS011;44322;52.968;5.816;2023-12-29T04:56:28;27.33;;;6.03;;
58528;SDS011;44322;52.968;5.816;2023-12-29T04:58:54;25.30;;;5.53;;
58528;SDS011;44322;52.968;5.816;2023-12-29T05:01:21;27.90;;;5.28;;
58528;SDS011;44322;52.968;5.816;2023-12-29T05:03:47;27.05;;;5.25;;
58528;SDS011;44322;52.968;5.816;2023-12-29T05:06:13;29.08;;;5.53;;
58528;SDS011;44322;52.968;5.816;2023-12-29T05:08:38;22.17;;;5.50;;
58528;SDS011;44322;52.968;5.816;2023-12-29T05:11:04;20.55;;;4.93;;
58528;SDS011;44322;52.968;5.816;2023-12-29T05:13:29;23.20;;;5.25;;
58528;SDS011;44322;52.968;5.816;2023-12-29T05:15:55;30.42;;;6.50;;
58528;SDS011;44322;52.968;5.816;2023-12-29T05:18:21;26.08;;;5.65;;
58528;SDS011;44322;52.968;5.816;2023-12-29T05:20:46;23.77;;;5.15;;
58528;SDS011;44322;52.968;5.816;2023-12-29T05:23:12;20.65;;;5.35;;
58528;SDS011;44322;52.968;5.816;2023-12-29T05:25:37;25.45;;;6.05;;
58528;SDS011;44322;52.968;5.816;2023-12-29T05:28:03;21.08;;;5.45;;
58528;SDS011;44322;52.968;5.816;2023-12-29T05:30:29;30.02;;;6.20;;
58528;SDS011;44322;52.968;5.816;2023-12-29T05:32:56;25.88;;;5.45;;
58528;SDS011;44322;52.968;5.816;2023-12-29T05:35:22;22.95;;;5.18;;
58528;SDS011;44322;52.968;5.816;2023-12-29T05:37:48;23.85;;;5.80;;
58528;SDS011;44322;52.968;5.816;2023-12-29T05:40:15;21.15;;;5.25;;
58528;SDS011;44322;52.968;5.816;2023-12-29T05:42:41;27.25;;;5.88;;
58528;SDS011;44322;52.968;5.816;2023-12-29T05:45:06;22.70;;;5.05;;
58528;SDS011;44322;52.968;5.816;2023-12-29T05:47:32;23.85;;;4.63;;
58528;SDS011;44322;52.968;5.816;2023-12-29T05:49:58;28.58;;;5.75;;
58528;SDS011;44322;52.968;5.816;2023-12-29T05:52:23;28.38;;;5.47;;
58528;SDS011;44322;52.968;5.816;2023-12-29T05:54:49;26.10;;;6.00;;
58528;SDS011;44322;52.968;5.816;2023-12-29T05:57:15;25.90;;;5.25;;
58528;SDS011;44322;52.968;5.816;2023-12-29T05:59:41;25.33;;;5.93;;
58528;SDS011;44322;52.968;5.816;2023-12-29T06:02:07;23.77;;;5.70;;
58528;SDS011;44322;52.968;5.816;2023-12-29T06:04:32;27.38;;;5.60;;
58528;SDS011;44322;52.968;5.816;2023-12-29T06:06:58;26.38;;;5.40;;
58528;SDS011;44322;52.968;5.816;2023-12-29T06:09:23;23.17;;;5.07;;
58528;SDS011;44322;52.968;5.816;2023-12-29T06:11:49;30.27;;;6.28;;
58528;SDS011;44322;52.968;5.816;2023-12-29T06:14:15;26.65;;;5.15;;
58528;SDS011;44322;52.968;5.816;2023-12-29T06:16:41;25.40;;;5.10;;
58528;SDS011;44322;52.968;5.816;2023-12-29T06:19:07;21.27;;;5.18;;
58528;SDS011;44322;52.968;5.816;2023-12-29T06:21:33;29.92;;;5.88;;
58528;SDS011;44322;52.968;5.816;2023-12-29T06:23:59;23.83;;;4.85;;
58528;SDS011;44322;52.968;5.816;2023-12-29T06:26:24;32.50;;;5.63;;
58528;SDS011;44322;52.968;5.816;2023-12-29T06:28:50;24.60;;;5.72;;
58528;SDS011;44322;52.968;5.816;2023-12-29T06:31:16;26.42;;;6.55;;
58528;SDS011;44322;52.968;5.816;2023-12-29T06:33:42;28.33;;;5.53;;
58528;SDS011;44322;52.968;5.816;2023-12-29T06:36:08;30.80;;;6.43;;
58528;SDS011;44322;52.968;5.816;2023-12-29T06:38:34;23.50;;;5.00;;
58528;SDS011;44322;52.968;5.816;2023-12-29T06:41:04;28.55;;;5.63;;
58528;SDS011;44322;52.968;5.816;2023-12-29T06:43:30;27.67;;;5.35;;
58528;SDS011;44322;52.968;5.816;2023-12-29T06:45:56;27.30;;;5.30;;
58528;SDS011;44322;52.968;5.816;2023-12-29T06:48:22;27.65;;;5.28;;
58528;SDS011;44322;52.968;5.816;2023-12-29T06:50:47;26.10;;;5.85;;
58528;SDS011;44322;52.968;5.816;2023-12-29T06:53:13;29.38;;;5.50;;
58528;SDS011;44322;52.968;5.816;2023-12-29T06:55:38;24.05;;;4.90;;
58528;SDS011;44322;52.968;5.816;2023-12-29T06:58:04;27.33;;;6.15;;
58528;SDS011;44322;52.968;5.816;2023-12-29T07:00:30;28.65;;;5.78;;
58528;SDS011;44322;52.968;5.816;2023-12-29T07:02:56;26.80;;;5.53;;
58528;SDS011;44322;52.968;5.816;2023-12-29T07:05:21;24.38;;;5.50;;
58528;SDS011;44322;52.968;5.816;2023-12-29T07:07:47;23.90;;;5.63;;
58528;SDS011;44322;52.968;5.816;2023-12-29T07:10:13;28.27;;;6.18;;
58528;SDS011;44322;52.968;5.816;2023-12-29T07:12:40;25.27;;;5.15;;
58528;SDS011;44322;52.968;5.816;2023-12-29T07:15:06;28.23;;;5.72;;
58528;SDS011;44322;52.968;5.816;2023-12-29T07:17:32;26.92;;;6.10;;
58528;SDS011;44322;52.968;5.816;2023-12-29T07:19:57;26.05;;;5.68;;
58528;SDS011;44322;52.968;5.816;2023-12-29T07:22:23;29.08;;;5.90;;
58528;SDS011;44322;52.968;5.816;2023-12-29T07:24:49;26.90;;;5.55;;
58528;SDS011;44322;52.968;5.816;2023-12-29T07:27:15;27.92;;;6.25;;
58528;SDS011;44322;52.968;5.816;2023-12-29T07:29:40;31.77;;;6.68;;
58528;SDS011;44322;52.968;5.816;2023-12-29T07:32:06;22.25;;;5.80;;
58528;SDS011;44322;52.968;5.816;2023-12-29T07:34:32;24.88;;;6.43;;
58528;SDS011;44322;52.968;5.816;2023-12-29T07:36:57;28.85;;;6.05;;
58528;SDS011;44322;52.968;5.816;2023-12-29T07:39:26;31.92;;;6.80;;
58528;SDS011;44322;52.968;5.816;2023-12-29T07:41:51;31.88;;;6.88;;
58528;SDS011;44322;52.968;5.816;2023-12-29T07:44:18;27.08;;;6.38;;
58528;SDS011;44322;52.968;5.816;2023-12-29T07:46:43;29.70;;;6.55;;
58528;SDS011;44322;52.968;5.816;2023-12-29T07:49:09;27.80;;;5.53;;
58528;SDS011;44322;52.968;5.816;2023-12-29T07:51:42;27.35;;;6.70;;
58528;SDS011;44322;52.968;5.816;2023-12-29T07:54:08;35.88;;;6.32;;
58528;SDS011;44322;52.968;5.816;2023-12-29T07:56:34;30.08;;;5.93;;
58528;SDS011;44322;52.968;5.816;2023-12-29T07:59:02;31.02;;;6.45;;
58528;SDS011;44322;52.968;5.816;2023-12-29T08:01:28;29.30;;;6.13;;
58528;SDS011;44322;52.968;5.816;2023-12-29T08:03:54;30.17;;;6.07;;
58528;SDS011;44322;52.968;5.816;2023-12-29T08:06:20;28.95;;;5.57;;
58528;SDS011;44322;52.968;5.816;2023-12-29T08:08:45;29.05;;;5.72;;
58528;SDS011;44322;52.968;5.816;2023-12-29T08:11:14;28.95;;;6.60;;
58528;SDS011;44322;52.968;5.816;2023-12-29T08:13:43;31.48;;;6.68;;
58528;SDS011;44322;52.968;5.816;2023-12-29T08:16:09;31.60;;;5.20;;
58528;SDS011;44322;52.968;5.816;2023-12-29T08:18:34;31.30;;;6.95;;
58528;SDS011;44322;52.968;5.816;2023-12-29T08:21:01;29.95;;;6.35;;
58528;SDS011;44322;52.968;5.816;2023-12-29T08:23:27;34.92;;;6.07;;
58528;SDS011;44322;52.968;5.816;2023-12-29T08:25:52;29.25;;;6.90;;
58528;SDS011;44322;52.968;5.816;2023-12-29T08:28:18;33.35;;;6.85;;
58528;SDS011;44322;52.968;5.816;2023-12-29T08:30:43;35.35;;;7.10;;
58528;SDS011;44322;52.968;5.816;2023-12-29T08:33:11;30.73;;;6.07;;
58528;SDS011;44322;52.968;5.816;2023-12-29T08:35:39;30.10;;;6.22;;
58528;SDS011;44322;52.968;5.816;2023-12-29T08:38:06;28.60;;;6.43;;
58528;SDS011;44322;52.968;5.816;2023-12-29T08:40:31;31.73;;;6.07;;
58528;SDS011;44322;52.968;5.816;2023-12-29T08:42:57;24.15;;;5.68;;
58528;SDS011;44322;52.968;5.816;2023-12-29T08:45:23;30.38;;;6.13;;
58528;SDS011;44322;52.968;5.816;2023-12-29T08:47:48;22.42;;;5.30;;
58528;SDS011;44322;52.968;5.816;2023-12-29T08:50:17;25.83;;;5.95;;
58528;SDS011;44322;52.968;5.816;2023-12-29T08:52:43;25.17;;;6.43;;
58528;SDS011;44322;52.968;5.816;2023-12-29T08:55:08;29.10;;;5.63;;
58528;SDS011;44322;52.968;5.816;2023-12-29T08:57:35;25.67;;;5.68;;
58528;SDS011;44322;52.968;5.816;2023-12-29T09:00:03;27.60;;;5.45;;
58528;SDS011;44322;52.968;5.816;2023-12-29T09:02:31;24.17;;;5.03;;
58528;SDS011;44322;52.968;5.816;2023-12-29T09:08:13;26.98;;;5.43;;
58528;SDS011;44322;52.968;5.816;2023-12-29T09:10:39;22.08;;;5.43;;
58528;SDS011;44322;52.968;5.816;2023-12-29T09:13:05;23.05;;;5.55;;
58528;SDS011;44322;52.968;5.816;2023-12-29T09:15:30;24.48;;;5.10;;
58528;SDS011;44322;52.968;5.816;2023-12-29T09:17:56;24.33;;;5.32;;
58528;SDS011;44322;52.968;5.816;2023-12-29T09:20:21;24.58;;;4.90;;
58528;SDS011;44322;52.968;5.816;2023-12-29T09:22:47;27.00;;;5.95;;
58528;SDS011;44322;52.968;5.816;2023-12-29T09:25:13;25.13;;;5.30;;
58528;SDS011;44322;52.968;5.816;2023-12-29T09:27:39;21.88;;;4.72;;
58528;SDS011;44322;52.968;5.816;2023-12-29T09:30:05;24.23;;;5.65;;
58528;SDS011;44322;52.968;5.816;2023-12-29T09:32:31;26.83;;;6.00;;
58528;SDS011;44322;52.968;5.816;2023-12-29T09:34:56;26.25;;;5.20;;
58528;SDS011;44322;52.968;5.816;2023-12-29T09:37:22;27.58;;;5.72;;
58528;SDS011;44322;52.968;5.816;2023-12-29T09:39:48;21.67;;;5.03;;
58528;SDS011;44322;52.968;5.816;2023-12-29T09:42:21;25.15;;;5.05;;
58528;SDS011;44322;52.968;5.816;2023-12-29T09:44:50;19.75;;;4.43;;
58528;SDS011;44322;52.968;5.816;2023-12-29T09:47:24;21.02;;;4.28;;
58528;SDS011;44322;52.968;5.816;2023-12-29T09:49:51;19.98;;;3.85;;
58528;SDS011;44322;52.968;5.816;2023-12-29T09:52:18;16.65;;;4.20;;
58528;SDS011;44322;52.968;5.816;2023-12-29T09:54:45;18.00;;;4.00;;
58528;SDS011;44322;52.968;5.816;2023-12-29T09:57:12;22.80;;;4.15;;
58528;SDS011;44322;52.968;5.816;2023-12-29T09:59:38;17.48;;;4.20;;
58528;SDS011;44322;52.968;5.816;2023-12-29T10:02:09;17.48;;;3.47;;
58528;SDS011;44322;52.968;5.816;2023-12-29T10:04:38;20.65;;;3.97;;
58528;SDS011;44322;52.968;5.816;2023-12-29T10:07:04;16.08;;;3.50;;
58528;SDS011;44322;52.968;5.816;2023-12-29T10:09:33;16.73;;;3.78;;
58528;SDS011;44322;52.968;5.816;2023-12-29T10:11:59;19.17;;;4.05;;
58528;SDS011;44322;52.968;5.816;2023-12-29T10:14:35;17.15;;;3.85;;
58528;SDS011;44322;52.968;5.816;2023-12-29T10:17:07;24.25;;;4.57;;
58528;SDS011;44322;52.968;5.816;2023-12-29T10:19:46;18.98;;;3.67;;
58528;SDS011;44322;52.968;5.816;2023-12-29T10:22:26;18.33;;;3.88;;
58528;SDS011;44322;52.968;5.816;2023-12-29T10:24:58;20.10;;;4.15;;
58528;SDS011;44322;52.968;5.816;2023-12-29T10:27:25;20.55;;;4.30;;
58528;SDS011;44322;52.968;5.816;2023-12-29T10:29:51;16.90;;;3.58;;
58528;SDS011;44322;52.968;5.816;2023-12-29T10:32:17;24.17;;;4.20;;
58528;SDS011;44322;52.968;5.816;2023-12-29T10:34:43;17.73;;;4.13;;
58528;SDS011;44322;52.968;5.816;2023-12-29T10:37:08;21.10;;;4.50;;
58528;SDS011;44322;52.968;5.816;2023-12-29T10:39:38;16.45;;;4.13;;
58528;SDS011;44322;52.968;5.816;2023-12-29T10:42:05;16.48;;;3.92;;
58528;SDS011;44322;52.968;5.816;2023-12-29T10:44:35;16.65;;;3.90;;
58528;SDS011;44322;52.968;5.816;2023-12-29T10:47:08;15.38;;;3.55;;
58528;SDS011;44322;52.968;5.816;2023-12-29T10:49:35;17.50;;;3.20;;
58528;SDS011;44322;52.968;5.816;2023-12-29T10:52:10;14.77;;;3.60;;
58528;SDS011;44322;52.968;5.816;2023-12-29T10:54:37;15.30;;;3.38;;
58528;SDS011;44322;52.968;5.816;2023-12-29T10:57:02;15.25;;;2.85;;
58528;SDS011;44322;52.968;5.816;2023-12-29T10:59:28;16.58;;;3.13;;
58528;SDS011;44322;52.968;5.816;2023-12-29T11:01:55;12.13;;;3.45;;
58528;SDS011;44322;52.968;5.816;2023-12-29T11:04:24;13.63;;;3.50;;
58528;SDS011;44322;52.968;5.816;2023-12-29T11:06:49;13.20;;;2.85;;
58528;SDS011;44322;52.968;5.816;2023-12-29T11:09:27;13.95;;;3.20;;
58528;SDS011;44322;52.968;5.816;2023-12-29T11:11:54;12.88;;;3.22;;
58528;SDS011;44322;52.968;5.816;2023-12-29T11:16:47;9.20;;;2.33;;
58528;SDS011;44322;52.968;5.816;2023-12-29T11:19:14;14.68;;;3.42;;
58528;SDS011;44322;52.968;5.816;2023-12-29T11:21:40;11.52;;;2.83;;
58528;SDS011;44322;52.968;5.816;2023-12-29T11:24:07;19.58;;;3.67;;
58528;SDS011;44322;52.968;5.816;2023-12-29T11:26:33;11.55;;;3.08;;
58528;SDS011;44322;52.968;5.816;2023-12-29T11:28:59;16.00;;;3.42;;
58528;SDS011;44322;52.968;5.816;2023-12-29T11:31:26;11.98;;;3.03;;
58528;SDS011;44322;52.968;5.816;2023-12-29T11:34:03;11.20;;;3.15;;
58528;SDS011;44322;52.968;5.816;2023-12-29T11:36:32;14.25;;;3.42;;
58528;SDS011;44322;52.968;5.816;2023-12-29T11:42:26;14.68;;;3.38;;
58528;SDS011;44322;52.968;5.816;2023-12-29T11:44:56;10.55;;;3.28;;
58528;SDS011;44322;52.968;5.816;2023-12-29T11:47:34;13.77;;;3.20;;
58528;SDS011;44322;52.968;5.816;2023-12-29T11:50:01;18.75;;;3.83;;
58528;SDS011;44322;52.968;5.816;2023-12-29T11:52:37;16.65;;;3.63;;
58528;SDS011;44322;52.968;5.816;2023-12-29T11:55:13;16.52;;;3.50;;
58528;SDS011;44322;52.968;5.816;2023-12-29T11:57:40;18.25;;;3.92;;
58528;SDS011;44322;52.968;5.816;2023-12-29T12:00:07;18.48;;;3.55;;
58528;SDS011;44322;52.968;5.816;2023-12-29T12:02:37;12.60;;;3.20;;
58528;SDS011;44322;52.968;5.816;2023-12-29T12:05:03;20.00;;;4.15;;
58528;SDS011;44322;52.968;5.816;2023-12-29T12:12:45;15.38;;;3.38;;
58528;SDS011;44322;52.968;5.816;2023-12-29T12:17:52;15.40;;;3.30;;
58528;SDS011;44322;52.968;5.816;2023-12-29T12:20:18;12.57;;;3.20;;
58528;SDS011;44322;52.968;5.816;2023-12-29T12:22:44;12.63;;;2.75;;
58528;SDS011;44322;52.968;5.816;2023-12-29T12:25:11;14.50;;;3.55;;
58528;SDS011;44322;52.968;5.816;2023-12-29T12:27:37;13.48;;;3.13;;
58528;SDS011;44322;52.968;5.816;2023-12-29T12:30:03;18.65;;;4.15;;
58528;SDS011;44322;52.968;5.816;2023-12-29T12:32:29;14.07;;;3.40;;
58528;SDS011;44322;52.968;5.816;2023-12-29T12:34:56;12.85;;;3.20;;
58528;SDS011;44322;52.968;5.816;2023-12-29T12:37:28;16.90;;;3.38;;
58528;SDS011;44322;52.968;5.816;2023-12-29T12:39:54;17.38;;;4.43;;
58528;SDS011;44322;52.968;5.816;2023-12-29T12:42:20;18.55;;;3.17;;
58528;SDS011;44322;52.968;5.816;2023-12-29T12:47:15;15.98;;;3.63;;
58528;SDS011;44322;52.968;5.816;2023-12-29T12:49:43;15.25;;;3.20;;
58528;SDS011;44322;52.968;5.816;2023-12-29T12:52:09;18.20;;;3.60;;
58528;SDS011;44322;52.968;5.816;2023-12-29T12:54:34;14.23;;;3.40;;
58528;SDS011;44322;52.968;5.816;2023-12-29T12:57:00;11.55;;;3.05;;
58528;SDS011;44322;52.968;5.816;2023-12-29T12:59:27;12.15;;;3.65;;
58528;SDS011;44322;52.968;5.816;2023-12-29T13:01:52;14.10;;;3.05;;
58528;SDS011;44322;52.968;5.816;2023-12-29T13:04:18;12.00;;;3.17;;
58528;SDS011;44322;52.968;5.816;2023-12-29T13:06:44;13.57;;;3.40;;
58528;SDS011;44322;52.968;5.816;2023-12-29T13:09:10;15.85;;;3.53;;
58528;SDS011;44322;52.968;5.816;2023-12-29T13:11:37;15.88;;;3.88;;
58528;SDS011;44322;52.968;5.816;2023-12-29T13:14:06;15.80;;;3.85;;
58528;SDS011;44322;52.968;5.816;2023-12-29T13:16:33;17.67;;;4.25;;
58528;SDS011;44322;52.968;5.816;2023-12-29T13:19:17;12.98;;;3.08;;
58528;SDS011;44322;52.968;5.816;2023-12-29T13:21:48;13.25;;;3.17;;
58528;SDS011;44322;52.968;5.816;2023-12-29T13:24:16;17.63;;;4.05;;
58528;SDS011;44322;52.968;5.816;2023-12-29T13:26:45;15.95;;;3.13;;
58528;SDS011;44322;52.968;5.816;2023-12-29T13:29:17;14.15;;;3.17;;
58528;SDS011;44322;52.968;5.816;2023-12-29T13:31:44;13.80;;;3.17;;
58528;SDS011;44322;52.968;5.816;2023-12-29T13:34:11;16.60;;;3.45;;
58528;SDS011;44322;52.968;5.816;2023-12-29T13:36:42;18.15;;;3.92;;
58528;SDS011;44322;52.968;5.816;2023-12-29T13:39:34;17.92;;;4.00;;
58528;SDS011;44322;52.968;5.816;2023-12-29T13:42:04;15.93;;;3.47;;
58528;SDS011;44322;52.968;5.816;2023-12-29T13:44:31;17.77;;;3.85;;
58528;SDS011;44322;52.968;5.816;2023-12-29T13:46:58;15.95;;;3.92;;
58528;SDS011;44322;52.968;5.816;2023-12-29T13:49:24;16.35;;;3.83;;
58528;SDS011;44322;52.968;5.816;2023-12-29T13:51:49;20.40;;;4.60;;
58528;SDS011;44322;52.968;5.816;2023-12-29T13:54:15;17.13;;;3.17;;
58528;SDS011;44322;52.968;5.816;2023-12-29T13:56:51;14.98;;;3.50;;
58528;SDS011;44322;52.968;5.816;2023-12-29T13:59:18;13.75;;;3.05;;
58528;SDS011;44322;52.968;5.816;2023-12-29T14:01:44;15.75;;;3.33;;
58528;SDS011;44322;52.968;5.816;2023-12-29T14:04:10;17.85;;;3.30;;
58528;SDS011;44322;52.968;5.816;2023-12-29T14:09:05;18.35;;;3.38;;
58528;SDS011;44322;52.968;5.816;2023-12-29T14:11:31;16.15;;;3.60;;
58528;SDS011;44322;52.968;5.816;2023-12-29T14:13:58;15.68;;;3.35;;
58528;SDS011;44322;52.968;5.816;2023-12-29T14:16:23;16.08;;;3.38;;
58528;SDS011;44322;52.968;5.816;2023-12-29T14:18:53;17.52;;;4.18;;
58528;SDS011;44322;52.968;5.816;2023-12-29T14:21:23;17.02;;;4.07;;
58528;SDS011;44322;52.968;5.816;2023-12-29T14:29:11;14.98;;;3.45;;
58528;SDS011;44322;52.968;5.816;2023-12-29T14:34:04;12.68;;;3.17;;
58528;SDS011;44322;52.968;5.816;2023-12-29T14:36:34;14.98;;;3.30;;
58528;SDS011;44322;52.968;5.816;2023-12-29T14:39:18;11.68;;;3.35;;
58528;SDS011;44322;52.968;5.816;2023-12-29T14:41:43;19.77;;;3.17;;
58528;SDS011;44322;52.968;5.816;2023-12-29T14:44:10;18.08;;;3.55;;
58528;SDS011;44322;52.968;5.816;2023-12-29T14:46:36;16.05;;;3.67;;
58528;SDS011;44322;52.968;5.816;2023-12-29T14:49:03;14.25;;;3.42;;
58528;SDS011;44322;52.968;5.816;2023-12-29T14:51:28;13.70;;;3.22;;
58528;SDS011;44322;52.968;5.816;2023-12-29T14:53:54;12.73;;;3.40;;
58528;SDS011;44322;52.968;5.816;2023-12-29T14:56:20;15.80;;;3.15;;
58528;SDS011;44322;52.968;5.816;2023-12-29T14:58:45;13.75;;;2.83;;
58528;SDS011;44322;52.968;5.816;2023-12-29T15:01:12;11.80;;;3.40;;
58528;SDS011;44322;52.968;5.816;2023-12-29T15:03:37;13.77;;;3.17;;
58528;SDS011;44322;52.968;5.816;2023-12-29T15:06:03;16.13;;;3.47;;
58528;SDS011;44322;52.968;5.816;2023-12-29T15:08:29;17.08;;;4.20;;